createdAt,value
2023-02-25T00:02:03.251Z,27.57
2023-02-25T00:04:32.575Z,29.60
2023-02-25T00:07:01.274Z,27.07
2023-02-25T00:09:32.123Z,28.20
2023-02-25T00:12:00.685Z,24.67
2023-02-25T00:14:29.702Z,25.33
2023-02-25T00:16:58.440Z,25.87
2023-02-25T00:19:27.734Z,28.03
2023-02-25T00:21:56.693Z,27.07
2023-02-25T00:24:25.414Z,25.63
2023-02-25T00:26:55.427Z,26.90
2023-02-25T00:29:23.953Z,24.10
2023-02-25T00:31:52.695Z,24.70
2023-02-25T00:34:46.649Z,26.00
2023-02-25T00:37:15.602Z,24.73
2023-02-25T00:39:44.142Z,25.07
2023-02-25T00:42:15.963Z,25.80
2023-02-25T00:44:46.146Z,24.90
2023-02-25T00:47:15.449Z,23.20
2023-02-25T00:49:44.689Z,21.38
2023-02-25T00:52:13.564Z,21.50
2023-02-25T00:54:42.129Z,20.90
2023-02-25T00:57:11.126Z,20.23
2023-02-25T00:59:41.023Z,17.90
2023-02-25T01:02:09.618Z,17.93
2023-02-25T01:04:38.147Z,18.60
2023-02-25T01:07:07.015Z,21.63
2023-02-25T01:09:35.545Z,23.07
2023-02-25T01:12:04.403Z,23.60
2023-02-25T01:14:33.609Z,19.23
2023-02-25T01:17:03.536Z,19.33
2023-02-25T01:19:32.245Z,19.27
2023-02-25T01:22:00.778Z,21.80
2023-02-25T01:24:31.090Z,23.47
2023-02-25T01:27:02.088Z,22.03
2023-02-25T01:29:32.886Z,20.80
2023-02-25T01:32:05.037Z,16.87
2023-02-25T01:34:34.582Z,17.40
2023-02-25T01:37:03.256Z,19.77
2023-02-25T01:39:32.872Z,19.67
2023-02-25T01:42:05.206Z,18.77
2023-02-25T01:45:40.840Z,18.30
2023-02-25T01:48:14.766Z,26.27
2023-02-25T01:50:49.224Z,21.33
2023-02-25T01:53:22.768Z,22.93
2023-02-25T01:55:52.137Z,22.37
2023-02-25T01:58:22.518Z,22.83
2023-02-25T02:00:55.759Z,22.33
2023-02-25T02:03:28.135Z,23.73
2023-02-25T02:06:02.804Z,24.57
2023-02-25T02:08:33.764Z,23.20
2023-02-25T02:11:03.002Z,25.77
2023-02-25T02:13:33.878Z,21.43
2023-02-25T02:16:17.518Z,23.50
2023-02-25T02:18:53.673Z,26.33
2023-02-25T02:21:45.780Z,23.13
2023-02-25T02:24:59.588Z,26.73
2023-02-25T02:27:39.614Z,29.07
2023-02-25T02:30:26.667Z,26.07
2023-02-25T02:33:02.483Z,22.57
2023-02-25T02:35:38.087Z,24.63
2023-02-25T02:38:14.965Z,24.07
2023-02-25T02:40:54.561Z,22.30
2023-02-25T02:43:36.757Z,22.27
2023-02-25T02:46:10.993Z,25.17
2023-02-25T02:48:47.647Z,23.03
2023-02-25T02:51:20.579Z,23.02
2023-02-25T02:53:53.814Z,14.97
2023-02-25T02:56:25.345Z,17.63
2023-02-25T02:58:58.916Z,20.57
2023-02-25T03:01:33.690Z,20.57
2023-02-25T03:04:06.231Z,21.57
2023-02-25T03:06:37.632Z,23.17
2023-02-25T03:09:10.618Z,25.13
2023-02-25T03:11:39.388Z,25.17
2023-02-25T03:14:10.601Z,23.43
2023-02-25T03:16:42.712Z,23.10
2023-02-25T03:19:17.366Z,21.80
2023-02-25T03:21:50.158Z,25.27
2023-02-25T03:24:33.394Z,23.37
2023-02-25T03:27:02.814Z,23.20
2023-02-25T03:29:31.354Z,22.77
2023-02-25T03:32:05.609Z,20.00
2023-02-25T03:34:38.954Z,22.77
2023-02-25T03:37:15.727Z,22.27
2023-02-25T03:39:48.000Z,23.60
2023-02-25T03:42:21.789Z,24.33
2023-02-25T03:44:53.571Z,24.17
2023-02-25T03:47:24.462Z,26.77
2023-02-25T03:49:59.662Z,24.03
2023-02-25T03:52:29.998Z,24.83
2023-02-25T03:55:00.104Z,24.93
2023-02-25T03:57:37.417Z,22.40
2023-02-25T04:00:16.088Z,25.77
2023-02-25T04:02:45.952Z,23.53
2023-02-25T04:05:17.936Z,22.00
2023-02-25T04:07:46.605Z,21.40
2023-02-25T04:10:17.114Z,35.73
2023-02-25T04:12:45.672Z,22.90
2023-02-25T04:15:15.502Z,29.50
2023-02-25T04:17:45.319Z,28.20
2023-02-25T04:20:17.483Z,24.87
2023-02-25T04:22:46.060Z,36.40
2023-02-25T04:25:14.614Z,25.43
2023-02-25T04:27:43.169Z,31.03
2023-02-25T04:30:13.251Z,32.47
2023-02-25T04:32:42.118Z,40.73
2023-02-25T04:35:12.914Z,37.03
2023-02-25T04:37:43.483Z,40.67
2023-02-25T04:40:16.080Z,39.07
2023-02-25T04:43:00.987Z,40.80
2023-02-25T04:45:29.573Z,42.07
2023-02-25T04:47:58.447Z,38.43
2023-02-25T04:50:27.458Z,31.10
2023-02-25T04:52:58.694Z,33.10
2023-02-25T04:55:27.281Z,30.87
2023-02-25T04:57:55.855Z,34.13
2023-02-25T05:00:25.581Z,34.67
2023-02-25T05:02:54.378Z,33.83
2023-02-25T05:05:22.923Z,34.70
2023-02-25T05:07:51.480Z,38.30
2023-02-25T05:10:21.625Z,36.93
2023-02-25T05:12:50.528Z,35.00
2023-02-25T05:15:19.111Z,37.87
2023-02-25T05:17:49.003Z,37.30
2023-02-25T05:20:18.007Z,31.03
2023-02-25T05:22:46.650Z,32.57
2023-02-25T05:25:16.807Z,35.97
2023-02-25T05:27:47.200Z,30.20
2023-02-25T05:30:17.016Z,28.80
2023-02-25T05:32:45.728Z,31.37
2023-02-25T05:35:14.532Z,31.13
2023-02-25T05:37:43.188Z,28.87
2023-02-25T05:40:14.270Z,32.73
2023-02-25T05:42:42.954Z,27.23
2023-02-25T05:45:13.267Z,30.90
2023-02-25T05:47:41.860Z,33.03
2023-02-25T05:50:11.646Z,31.20
2023-02-25T05:52:40.363Z,27.37
2023-02-25T05:55:10.537Z,29.17
2023-02-25T05:57:39.157Z,28.90
2023-02-25T06:00:09.891Z,29.43
2023-02-25T06:02:39.883Z,30.17
2023-02-25T06:05:09.996Z,28.47
2023-02-25T06:07:38.491Z,29.70
2023-02-25T06:10:07.768Z,31.27
2023-02-25T06:12:38.460Z,29.17
2023-02-25T06:15:07.913Z,28.27
2023-02-25T06:17:36.496Z,28.50
2023-02-25T06:20:07.993Z,28.20
2023-02-25T06:22:36.643Z,30.47
2023-02-25T06:25:05.607Z,25.50
2023-02-25T06:27:34.710Z,25.67
2023-02-25T06:30:03.962Z,26.40
2023-02-25T06:32:32.626Z,26.47
2023-02-25T06:35:01.224Z,24.23
2023-02-25T06:37:31.200Z,28.50
2023-02-25T06:39:59.874Z,27.57
2023-02-25T06:42:28.399Z,27.37
2023-02-25T06:44:57.021Z,32.27
2023-02-25T06:47:25.616Z,29.47
2023-02-25T06:49:54.111Z,30.67
2023-02-25T06:52:22.912Z,29.47
2023-02-25T06:54:53.154Z,35.53
2023-02-25T06:57:21.797Z,33.30
2023-02-25T06:59:50.344Z,30.40
2023-02-25T07:02:18.895Z,19.77
2023-02-25T07:04:47.504Z,23.47
2023-02-25T07:07:16.157Z,25.60
2023-02-25T07:09:44.663Z,30.47
2023-02-25T07:12:14.873Z,31.47
2023-02-25T07:14:43.745Z,32.27
2023-02-25T07:17:12.891Z,32.13
2023-02-25T07:19:41.463Z,31.53
2023-02-25T07:22:13.127Z,38.73
2023-02-25T07:24:41.904Z,32.37
2023-02-25T07:27:10.728Z,32.87
2023-02-25T07:29:40.988Z,33.77
2023-02-25T07:32:09.705Z,33.27
2023-02-25T07:34:46.101Z,29.30
2023-02-25T07:37:14.588Z,29.80
2023-02-25T07:39:43.119Z,28.57
2023-02-25T07:42:11.949Z,27.63
2023-02-25T07:44:42.354Z,25.77
2023-02-25T07:47:10.954Z,24.57
2023-02-25T07:49:40.029Z,25.67
2023-02-25T07:52:08.975Z,26.70
2023-02-25T07:54:37.607Z,27.43
2023-02-25T07:57:06.393Z,30.30
2023-02-25T07:59:36.124Z,29.35
2023-02-25T08:02:06.539Z,32.03
2023-02-25T08:04:35.416Z,35.60
2023-02-25T08:07:04.096Z,28.47
2023-02-25T08:09:32.603Z,32.27
2023-02-25T08:12:01.240Z,29.03
2023-02-25T08:14:29.908Z,27.93
2023-02-25T08:16:59.005Z,35.17
2023-02-25T08:19:29.140Z,29.37
2023-02-25T08:21:57.721Z,31.47
2023-02-25T08:24:26.671Z,30.53
2023-02-25T08:26:55.730Z,29.47
2023-02-25T08:29:24.392Z,30.37
2023-02-25T08:31:53.518Z,30.27
2023-02-25T08:34:22.475Z,29.90
2023-02-25T08:36:52.607Z,30.20
2023-02-25T08:39:21.280Z,27.00
2023-02-25T08:41:49.887Z,29.10
2023-02-25T08:44:20.062Z,27.57
2023-02-25T08:46:48.690Z,31.67
2023-02-25T08:49:17.249Z,29.30
2023-02-25T08:51:45.878Z,24.30
2023-02-25T08:54:16.185Z,25.57
2023-02-25T08:56:45.666Z,34.65
2023-02-25T08:59:16.690Z,37.00
2023-02-25T09:01:45.941Z,25.27
2023-02-25T09:04:24.546Z,24.10
2023-02-25T09:06:54.351Z,20.63
2023-02-25T09:09:24.608Z,26.50
2023-02-25T09:11:54.167Z,26.80
2023-02-25T09:14:23.374Z,31.15
2023-02-25T09:16:52.731Z,24.20
2023-02-25T09:19:22.690Z,23.60
2023-02-25T09:22:00.601Z,24.87
2023-02-25T09:24:30.979Z,22.73
2023-02-25T09:26:59.651Z,21.30
2023-02-25T09:29:28.455Z,20.77
2023-02-25T09:50:18.577Z,16.67
2023-02-25T09:52:55.437Z,18.37
2023-02-25T09:55:32.093Z,19.37
2023-02-25T09:58:08.994Z,20.97
2023-02-25T10:00:44.120Z,16.40
2023-02-25T10:03:20.089Z,16.27
2023-02-25T10:05:57.155Z,16.60
2023-02-25T10:08:32.863Z,16.00
2023-02-25T10:11:09.648Z,17.63
2023-02-25T10:13:47.674Z,19.00
2023-02-25T10:16:30.291Z,18.80
2023-02-25T10:19:13.584Z,14.53
2023-02-25T10:22:10.317Z,14.37
2023-02-25T10:24:44.335Z,14.53
2023-02-25T10:27:21.843Z,14.10
2023-02-25T10:29:53.236Z,14.33
2023-02-25T10:32:24.588Z,15.53
2023-02-25T10:34:55.164Z,14.40
2023-02-25T10:37:30.228Z,15.13
2023-02-25T10:40:02.932Z,13.43
2023-02-25T10:42:33.278Z,14.10
2023-02-25T10:45:08.750Z,14.10
2023-02-25T10:47:40.401Z,12.77
2023-02-25T10:50:19.123Z,15.03
2023-02-25T10:53:01.328Z,16.73
2023-02-25T10:55:42.445Z,10.07
2023-02-25T10:58:26.378Z,10.40
2023-02-25T11:01:01.756Z,11.73
2023-02-25T11:03:33.643Z,23.97
2023-02-25T11:06:14.802Z,34.30
2023-02-25T11:08:45.416Z,33.63
2023-02-25T11:11:19.892Z,26.03
2023-02-25T11:14:06.512Z,17.87
2023-02-25T11:16:37.576Z,14.17
2023-02-25T11:19:15.385Z,16.43
2023-02-25T11:21:44.781Z,13.23
2023-02-25T11:24:18.415Z,11.43
2023-02-25T11:26:49.145Z,19.50
2023-02-25T11:29:20.918Z,12.17
2023-02-25T11:31:52.468Z,21.93
2023-02-25T11:34:24.151Z,11.80
2023-02-25T11:36:53.577Z,11.10
2023-02-25T11:39:25.951Z,11.53
2023-02-25T11:41:56.686Z,9.77
2023-02-25T11:44:28.821Z,11.60
2023-02-25T11:47:05.933Z,11.17
2023-02-25T11:49:59.438Z,12.83
2023-02-25T11:52:37.594Z,17.60
2023-02-25T11:55:19.721Z,13.83
2023-02-25T11:58:02.807Z,12.13
2023-02-25T12:00:40.655Z,13.53
2023-02-25T12:03:32.856Z,15.03
2023-02-25T12:06:09.094Z,13.90
2023-02-25T12:08:50.503Z,12.10
2023-02-25T12:11:49.564Z,14.23
2023-02-25T12:14:51.509Z,20.67
2023-02-25T12:17:43.895Z,15.55
2023-02-25T12:20:50.296Z,13.77
2023-02-25T12:23:43.155Z,14.77
2023-02-25T12:26:16.461Z,12.80
2023-02-25T12:29:26.287Z,16.77
2023-02-25T12:32:20.071Z,12.60
2023-02-25T12:35:19.279Z,16.27
2023-02-25T12:38:16.265Z,15.20
2023-02-25T12:41:02.384Z,15.03
2023-02-25T12:43:41.622Z,16.30
2023-02-25T12:46:36.348Z,13.97
2023-02-25T12:49:41.344Z,11.10
2023-02-25T12:52:25.526Z,12.33
2023-02-25T12:55:33.418Z,10.93
2023-02-25T12:58:18.302Z,13.07
2023-02-25T13:01:34.507Z,13.80
2023-02-25T13:04:38.436Z,16.57
2023-02-25T13:07:44.661Z,16.07
2023-02-25T13:10:37.221Z,11.53
2023-02-25T13:13:29.863Z,25.33
2023-02-25T13:16:09.493Z,57.30
2023-02-25T13:18:48.898Z,66.37
2023-02-25T13:21:30.098Z,44.60
2023-02-25T13:24:33.188Z,33.87
2023-02-25T13:27:26.973Z,22.77
2023-02-25T13:30:16.831Z,20.93
2023-02-25T13:32:58.229Z,35.77
2023-02-25T13:35:38.167Z,29.87
2023-02-25T13:38:25.329Z,29.13
2023-02-25T13:41:09.115Z,28.77
2023-02-25T13:43:57.358Z,29.30
2023-02-25T13:46:58.347Z,29.77
2023-02-25T13:49:55.386Z,26.20
2023-02-25T13:52:31.606Z,27.43
2023-02-25T13:55:33.282Z,18.30
2023-02-25T13:58:25.667Z,17.40
2023-02-25T14:01:11.203Z,19.77
2023-02-25T14:04:18.213Z,23.83
2023-02-25T14:07:14.448Z,29.57
2023-02-25T14:09:51.813Z,25.30
2023-02-25T14:12:34.705Z,24.83
2023-02-25T14:15:20.434Z,21.47
2023-02-25T14:18:03.657Z,18.63
2023-02-25T14:20:41.045Z,21.33
2023-02-25T14:23:17.477Z,20.07
2023-02-25T14:26:06.917Z,19.98
2023-02-25T14:28:46.532Z,19.03
2023-02-25T14:31:24.769Z,17.57
2023-02-25T14:34:07.479Z,13.43
2023-02-25T14:37:01.343Z,10.83
2023-02-25T14:39:47.838Z,10.13
2023-02-25T14:42:33.956Z,12.77
2023-02-25T14:45:16.834Z,14.80
2023-02-25T14:47:55.740Z,13.70
2023-02-25T14:50:31.390Z,14.20
2023-02-25T14:53:28.438Z,13.00
2023-02-25T14:56:32.757Z,15.27
2023-02-25T14:59:28.145Z,15.47
2023-02-25T15:02:22.060Z,15.43
2023-02-25T15:05:16.608Z,16.57
2023-02-25T15:08:03.368Z,14.47
2023-02-25T15:10:45.137Z,16.13
2023-02-25T15:13:37.884Z,14.97
2023-02-25T15:16:35.793Z,12.27
2023-02-25T15:19:44.537Z,15.23
2023-02-25T15:22:25.242Z,36.93
2023-02-25T15:25:36.839Z,20.27
2023-02-25T15:28:26.063Z,51.20
2023-02-25T15:31:30.894Z,47.13
2023-02-25T15:34:33.158Z,45.17
2023-02-25T15:37:28.361Z,52.10
2023-02-25T15:39:59.289Z,46.37
2023-02-25T15:42:49.712Z,39.20
2023-02-25T15:45:43.146Z,37.03
2023-02-25T15:48:34.546Z,34.43
2023-02-25T15:51:06.510Z,26.60
2023-02-25T15:53:46.228Z,17.50
2023-02-25T15:56:52.342Z,16.40
2023-02-25T15:59:46.855Z,17.73
2023-02-25T16:02:35.370Z,26.93
2023-02-25T16:05:06.156Z,28.87
2023-02-25T16:07:38.490Z,35.97
2023-02-25T16:10:20.638Z,36.73
2023-02-25T16:12:53.038Z,35.47
2023-02-25T16:15:29.033Z,37.53
2023-02-25T16:18:00.132Z,34.13
2023-02-25T16:20:31.823Z,30.00
2023-02-25T16:23:03.437Z,29.47
2023-02-25T16:25:40.622Z,25.27
2023-02-25T16:28:20.451Z,30.63
2023-02-25T16:30:55.814Z,22.93
2023-02-25T16:33:36.924Z,27.77
2023-02-25T16:36:12.812Z,25.63
2023-02-25T16:38:58.410Z,29.60
2023-02-25T16:41:38.295Z,29.20
2023-02-25T16:44:08.121Z,26.93
2023-02-25T16:46:41.765Z,30.53
2023-02-25T16:49:16.323Z,28.70
2023-02-25T16:51:47.473Z,30.30
2023-02-25T16:54:19.118Z,31.03
2023-02-25T16:56:59.346Z,28.07
2023-02-25T16:59:31.861Z,29.37
2023-02-25T17:02:03.255Z,32.13
2023-02-25T17:04:34.423Z,28.73
2023-02-25T17:07:14.010Z,28.80
2023-02-25T17:09:52.049Z,31.00
2023-02-25T17:12:28.062Z,28.87
2023-02-25T17:14:59.788Z,28.20
2023-02-25T17:17:33.536Z,37.43
2023-02-25T17:20:14.992Z,30.10
2023-02-25T17:22:45.750Z,43.10
2023-02-25T17:25:17.990Z,32.30
2023-02-25T17:27:50.138Z,38.77
2023-02-25T17:30:42.541Z,46.03
2023-02-25T17:33:25.156Z,37.57
2023-02-25T17:35:58.717Z,32.80
2023-02-25T17:38:29.271Z,48.43
2023-02-25T17:40:59.462Z,39.37
2023-02-25T17:43:36.647Z,39.50
2023-02-25T17:46:17.574Z,47.43
2023-02-25T17:48:53.261Z,52.40
2023-02-25T17:51:32.933Z,43.63
2023-02-25T17:54:06.855Z,46.80
2023-02-25T17:56:37.653Z,34.10
2023-02-25T17:59:25.115Z,38.17
2023-02-25T18:01:55.811Z,38.43
2023-02-25T18:04:27.141Z,37.40
2023-02-25T18:06:56.642Z,21.17
2023-02-25T18:09:40.566Z,20.40
2023-02-25T18:12:16.872Z,19.97
2023-02-25T18:14:48.176Z,24.33
2023-02-25T18:17:26.101Z,26.17
2023-02-25T18:19:56.891Z,32.57
2023-02-25T18:22:37.905Z,30.23
2023-02-25T18:25:29.012Z,28.27
2023-02-25T18:27:58.417Z,33.57
2023-02-25T18:30:30.950Z,34.30
2023-02-25T18:33:01.040Z,31.83
2023-02-25T18:35:37.422Z,33.97
2023-02-25T18:38:06.128Z,35.60
2023-02-25T18:40:37.938Z,37.13
2023-02-25T18:43:07.546Z,33.47
2023-02-25T18:45:37.855Z,39.13
2023-02-25T18:48:06.517Z,41.47
2023-02-25T18:50:35.492Z,26.85
2023-02-25T18:53:04.616Z,22.57
2023-02-25T18:55:35.166Z,25.37
2023-02-25T18:58:05.151Z,22.77
2023-02-25T19:00:34.062Z,30.10
2023-02-25T19:03:06.030Z,33.90
2023-02-25T19:05:36.835Z,32.33
2023-02-25T19:08:12.851Z,38.63
2023-02-25T19:10:41.819Z,43.00
2023-02-25T19:13:18.285Z,35.67
2023-02-25T19:15:47.504Z,36.13
2023-02-25T19:18:18.439Z,35.77
2023-02-25T19:20:47.187Z,36.27
2023-02-25T19:23:18.237Z,31.37
2023-02-25T19:25:48.578Z,33.23
2023-02-25T19:28:17.784Z,35.93
2023-02-25T19:30:46.548Z,36.67
2023-02-25T19:33:20.087Z,29.73
2023-02-25T19:35:48.807Z,42.97
2023-02-25T19:38:19.463Z,37.90
2023-02-25T19:40:49.165Z,33.70
2023-02-25T19:43:18.690Z,36.90
2023-02-25T19:45:54.726Z,45.27
2023-02-25T19:48:25.318Z,48.17
2023-02-25T19:50:54.039Z,42.23
2023-02-25T19:53:23.148Z,39.17
2023-02-25T19:55:56.430Z,39.73
2023-02-25T19:58:25.840Z,42.07
2023-02-25T20:00:54.730Z,36.23
2023-02-25T20:03:24.970Z,43.73
2023-02-25T20:05:53.666Z,44.70
2023-02-25T20:08:22.391Z,40.50
2023-02-25T20:10:51.004Z,42.47
2023-02-25T20:13:21.979Z,41.00
2023-02-25T20:15:50.646Z,44.00
2023-02-25T20:18:19.622Z,41.53
2023-02-25T20:20:49.647Z,36.27
2023-02-25T20:23:18.266Z,43.90
2023-02-25T20:25:46.877Z,45.57
2023-02-25T20:28:17.581Z,37.30
2023-02-25T20:30:46.231Z,41.93
2023-02-25T20:33:14.924Z,37.27
2023-02-25T20:35:43.849Z,35.97
2023-02-25T20:38:19.586Z,33.97
2023-02-25T20:40:48.402Z,44.90
2023-02-25T20:43:17.588Z,41.30
2023-02-25T20:45:46.710Z,43.80
2023-02-25T20:48:27.542Z,39.23
2023-02-25T20:50:57.008Z,45.10
2023-02-25T20:53:27.500Z,49.90
2023-02-25T20:55:58.547Z,37.87
2023-02-25T20:58:27.250Z,53.00
2023-02-25T21:00:55.971Z,48.43
2023-02-25T21:03:24.562Z,44.40
2023-02-25T21:05:53.205Z,44.03
2023-02-25T21:08:21.841Z,37.10
2023-02-25T21:10:51.873Z,36.13
2023-02-25T21:13:20.654Z,30.80
2023-02-25T21:15:49.338Z,30.17
2023-02-25T21:18:18.160Z,38.70
2023-02-25T21:20:46.784Z,33.47
2023-02-25T21:23:15.310Z,41.30
2023-02-25T21:25:43.972Z,35.20
2023-02-25T21:28:14.043Z,35.70
2023-02-25T21:30:43.333Z,31.80
2023-02-25T21:33:12.463Z,29.70
2023-02-25T21:35:41.364Z,34.43
2023-02-25T21:38:10.003Z,35.50
2023-02-25T21:40:38.865Z,27.70
2023-02-25T21:43:07.504Z,33.50
2023-02-25T21:45:38.059Z,38.20
2023-02-25T21:48:07.434Z,31.37
2023-02-25T21:50:36.069Z,29.67
2023-02-25T21:53:05.089Z,28.47
2023-02-25T21:55:33.647Z,26.57
2023-02-25T21:58:02.500Z,29.90
2023-02-25T22:00:31.124Z,28.50
2023-02-25T22:03:01.696Z,30.40
2023-02-25T22:05:30.294Z,35.10
2023-02-25T22:07:58.955Z,27.80
2023-02-25T22:10:28.818Z,28.40
2023-02-25T22:12:57.379Z,35.53
2023-02-25T22:15:25.997Z,36.93
2023-02-25T22:17:55.300Z,37.43
2023-02-25T22:20:25.530Z,32.13
2023-02-25T22:22:54.304Z,37.77
2023-02-25T22:25:23.363Z,34.53
2023-02-25T22:27:52.318Z,33.27
2023-02-25T22:30:21.169Z,28.03
2023-02-25T22:32:49.768Z,32.07
2023-02-25T22:35:18.674Z,27.93
2023-02-25T22:37:48.873Z,31.60
2023-02-25T22:40:17.902Z,31.93
2023-02-25T22:42:46.502Z,31.80
2023-02-25T22:45:15.195Z,29.03
2023-02-25T22:47:43.811Z,28.67
2023-02-25T22:50:13.266Z,28.47
2023-02-25T22:52:43.690Z,30.20
2023-02-25T22:55:14.377Z,28.93
2023-02-25T22:57:42.962Z,28.10
2023-02-25T23:00:17.145Z,27.77
2023-02-25T23:02:46.434Z,35.13
2023-02-25T23:05:15.150Z,27.67
2023-02-25T23:07:43.834Z,29.33
2023-02-25T23:10:14.974Z,31.77
2023-02-25T23:12:45.416Z,29.43
2023-02-25T23:15:16.547Z,35.60
2023-02-25T23:17:46.285Z,27.00
2023-02-25T23:20:15.642Z,24.80
2023-02-25T23:22:44.240Z,24.00
2023-02-25T23:25:14.436Z,27.40
2023-02-25T23:27:43.063Z,30.47
2023-02-25T23:30:12.963Z,26.10
2023-02-25T23:32:42.399Z,28.70
2023-02-25T23:35:12.428Z,24.23
2023-02-25T23:37:41.312Z,22.80
2023-02-25T23:40:12.187Z,26.30
2023-02-25T23:42:47.313Z,21.00
2023-02-25T23:45:17.768Z,22.77
2023-02-25T23:47:46.427Z,20.93
2023-02-25T23:50:18.547Z,21.33
2023-02-25T23:52:47.932Z,22.03
2023-02-25T23:55:16.619Z,17.97
2023-02-25T23:57:46.610Z,17.17
